Time;durP1;ratioP1;P1;durP2;ratioP2;P2;SDS_P1;SDS_P2;PMS_P1;PMS_P2;Temp;Humidity;BMP_temperature;BMP_pressure;BME280_temperature;BME280_humidity;BME280_pressure;Samples;Min_cycle;Max_cycle;Signal;HPM_P1;HPM_P2
2020/12/27 00:00:32;;;;;;;22.08;9.57;;;;;;;-2.29;75.92;99919.13;5098147;28;20048;-46
2020/12/27 00:03:05;;;;;;;11.43;5.90;;;;;;;-2.33;76.00;99917.28;5098271;28;20063;-52
2020/12/27 00:05:30;;;;;;;17.23;7.32;;;;;;;-2.35;76.14;99923.22;5096938;28;20048;-53
2020/12/27 00:07:56;;;;;;;13.80;7.32;;;;;;;-2.32;76.25;99919.03;5097520;28;20044;-53
2020/12/27 00:10:22;;;;;;;20.13;7.30;;;;;;;-2.31;76.21;99916.47;5080345;28;20058;-53
2020/12/27 00:12:48;;;;;;;15.02;6.78;;;;;;;-2.25;76.12;99911.53;5097732;28;20424;-53
2020/12/27 00:15:14;;;;;;;14.77;6.55;;;;;;;-2.24;76.10;99912.41;5097861;28;20070;-53
2020/12/27 00:17:42;;;;;;;17.63;6.55;;;;;;;-2.24;76.08;99905.59;5097611;28;20036;-53
2020/12/27 00:20:08;;;;;;;16.48;7.00;;;;;;;-2.25;76.32;99908.09;5097526;28;20036;-53
2020/12/27 00:22:34;;;;;;;16.25;6.97;;;;;;;-2.22;76.19;99891.09;5096944;28;20078;-53
2020/12/27 00:25:00;;;;;;;16.70;7.53;;;;;;;-2.20;76.08;99881.75;5079857;28;20054;-53
2020/12/27 00:27:25;;;;;;;13.70;7.10;;;;;;;-2.12;75.90;99876.81;5096878;28;20047;-53
2020/12/27 00:29:51;;;;;;;14.68;7.45;;;;;;;-2.13;75.71;99873.38;5097444;28;20079;-53
2020/12/27 00:32:17;;;;;;;17.13;7.30;;;;;;;-2.16;75.86;99854.47;5097305;28;20036;-53
2020/12/27 00:34:43;;;;;;;16.38;7.70;;;;;;;-2.19;76.06;99844.13;5097215;28;20355;-53
2020/12/27 00:37:09;;;;;;;18.60;9.07;;;;;;;-2.14;76.03;99840.84;5097485;28;20058;-53
2020/12/27 00:39:35;;;;;;;22.08;10.60;;;;;;;-2.10;75.78;99841.78;5096611;28;20348;-54
2020/12/27 00:42:01;;;;;;;19.30;9.13;;;;;;;-2.12;75.75;99846.00;5097171;28;20104;-52
2020/12/27 00:44:27;;;;;;;23.98;9.48;;;;;;;-2.08;75.57;99835.00;5096458;28;20056;-53
2020/12/27 00:46:53;;;;;;;17.95;7.95;;;;;;;-2.09;75.54;99828.13;5079638;28;20052;-53
2020/12/27 00:49:19;;;;;;;19.90;8.98;;;;;;;-2.07;75.59;99831.59;5096449;28;20052;-54
2020/12/27 00:51:45;;;;;;;17.30;7.93;;;;;;;-2.09;75.28;99820.41;5097093;28;20105;-53
2020/12/27 00:54:11;;;;;;;26.85;10.75;;;;;;;-2.09;75.22;99824.69;5096166;28;20044;-53
2020/12/27 00:56:37;;;;;;;30.27;9.82;;;;;;;-2.15;75.36;99822.81;5095958;28;20059;-54
2020/12/27 00:59:10;;;;;;;35.30;11.98;;;;;;;-2.04;75.02;99818.84;5097267;28;20040;-53
2020/12/27 01:01:36;;;;;;;16.13;8.40;;;;;;;-2.14;75.22;99814.31;5097135;28;20051;-53
2020/12/27 01:04:23;;;;;;;25.30;9.75;;;;;;;-2.16;75.58;99815.97;5096482;28;20052;-53
2020/12/27 01:06:49;;;;;;;17.33;9.70;;;;;;;-2.16;75.57;99818.53;5079019;28;20035;-54
2020/12/27 01:09:15;;;;;;;17.67;8.05;;;;;;;-2.11;75.50;99806.69;5079548;28;20086;-53
2020/12/27 01:11:43;;;;;;;14.77;7.65;;;;;;;-2.10;75.49;99812.69;5095809;28;20394;-54
2020/12/27 01:14:09;;;;;;;15.95;8.80;;;;;;;-2.10;75.32;99812.69;5095724;28;20036;-54
2020/12/27 01:16:35;;;;;;;23.10;8.57;;;;;;;-2.14;75.44;99802.34;5078882;28;20321;-53
2020/12/27 01:19:01;;;;;;;26.25;9.50;;;;;;;-2.06;75.24;99794.84;5097130;28;20032;-53
2020/12/27 01:21:35;;;;;;;19.33;8.23;;;;;;;-2.13;75.26;99798.94;5095991;28;20468;-53
2020/12/27 01:24:10;;;;;;;20.17;8.63;;;;;;;-2.19;75.47;99803.91;5095613;28;20345;-54
2020/12/27 01:26:39;;;;;;;20.13;10.15;;;;;;;-2.21;75.35;99799.56;5095865;28;20148;-53
2020/12/27 01:29:05;;;;;;;23.25;10.07;;;;;;;-2.15;75.44;99792.03;5095522;28;20036;-54
2020/12/27 01:31:35;;;;;;;22.88;10.40;;;;;;;-2.20;75.39;99791.06;5096618;28;20134;-53
2020/12/27 01:34:08;;;;;;;22.25;9.75;;;;;;;-2.23;75.37;99778.16;5095511;28;20050;-54
2020/12/27 01:36:38;;;;;;;25.98;10.55;;;;;;;-2.24;75.35;99777.28;5095301;28;20512;-54
2020/12/27 01:39:10;;;;;;;24.83;10.15;;;;;;;-2.19;75.40;99774.81;5095518;28;20048;-53
2020/12/27 01:41:37;;;;;;;23.52;10.80;;;;;;;-2.27;75.41;99778.91;5096197;28;20047;-54
2020/12/27 01:44:08;;;;;;;22.17;10.25;;;;;;;-2.26;75.27;99770.38;5096026;28;20047;-54
2020/12/27 01:46:35;;;;;;;25.55;10.63;;;;;;;-2.24;75.37;99763.56;5095350;28;20352;-54
2020/12/27 01:49:06;;;;;;;30.38;11.82;;;;;;;-2.29;75.39;99757.47;5095543;28;20047;-53
2020/12/27 01:51:32;;;;;;;57.33;18.13;;;;;;;-2.30;75.37;99754.03;5095514;28;20131;-53
2020/12/27 01:53:58;;;;;;;52.85;16.65;;;;;;;-2.22;75.23;99744.81;5095515;28;20044;-54
2020/12/27 01:56:43;;;;;;;32.88;15.27;;;;;;;-2.30;75.51;99746.34;5096108;28;20093;-53
2020/12/27 01:59:18;;;;;;;31.67;12.85;;;;;;;-2.25;75.45;99749.88;5063314;28;20048;-54
2020/12/27 02:01:48;;;;;;;25.80;10.23;;;;;;;-2.31;75.44;99744.56;5063287;28;20131;-53
2020/12/27 02:04:32;;;;;;;24.13;11.32;;;;;;;-2.19;75.36;99744.88;5095260;28;20364;-54
2020/12/27 02:06:59;;;;;;;27.67;10.40;;;;;;;-2.20;75.12;99750.00;5095156;28;20051;-54
2020/12/27 02:09:44;;;;;;;18.85;9.25;;;;;;;-2.29;75.50;99744.63;5095381;28;20048;-55
2020/12/27 02:12:11;;;;;;;20.88;9.88;;;;;;;-2.29;75.47;99748.06;5078580;28;20116;-53
2020/12/27 02:14:42;;;;;;;27.40;10.52;;;;;;;-2.29;75.41;99742.06;5095296;28;20075;-54
2020/12/27 02:17:08;;;;;;;29.15;11.38;;;;;;;-2.24;75.32;99736.22;5094809;28;20360;-54
2020/12/27 02:20:00;;;;;;;29.38;13.73;;;;;;;-2.06;74.49;99724.66;5095645;28;20368;-53
2020/12/27 02:22:49;;;;;;;29.55;13.13;;;;;;;-2.26;75.06;99721.63;5096017;28;20352;-53
2020/12/27 02:25:31;;;;;;;32.65;13.90;;;;;;;-2.28;75.16;99721.56;5095051;28;20040;-54
2020/12/27 02:28:05;;;;;;;27.23;10.73;;;;;;;-2.28;75.49;99715.56;5095186;28;20116;-54
2020/12/27 02:30:30;;;;;;;23.30;11.75;;;;;;;-2.29;75.29;99718.97;5095215;28;20040;-54
2020/12/27 02:32:59;;;;;;;29.00;11.35;;;;;;;-2.30;75.42;99714.69;5095158;28;20052;-54
2020/12/27 02:35:26;;;;;;;27.80;10.57;;;;;;;-2.29;75.58;99706.16;5094835;28;20085;-53
2020/12/27 02:37:56;;;;;;;25.80;10.23;;;;;;;-2.29;75.24;99706.16;5094728;28;20055;-53
2020/12/27 02:40:23;;;;;;;24.10;10.82;;;;;;;-2.28;75.26;99695.03;5095061;28;20056;-54
2020/12/27 02:43:16;;;;;;;25.17;11.77;;;;;;;-2.38;75.57;99699.06;5094886;28;20067;-53
2020/12/27 02:45:45;;;;;;;24.77;12.03;;;;;;;-2.36;75.53;99684.59;5095620;28;20059;-53
2020/12/27 02:48:29;;;;;;;24.25;12.10;;;;;;;-2.37;75.46;99672.63;5095866;28;20063;-53
2020/12/27 02:50:58;;;;;;;25.10;11.68;;;;;;;-2.38;75.55;99670.84;5096096;28;20036;-54
2020/12/27 02:53:26;;;;;;;24.08;10.55;;;;;;;-2.30;75.37;99656.53;5098417;28;20044;-54
2020/12/27 02:55:52;;;;;;;24.33;10.77;;;;;;;-2.33;75.45;99660.72;5098563;28;20471;-54
2020/12/27 02:58:18;;;;;;;27.65;11.30;;;;;;;-2.38;75.64;99658.88;5081451;28;20048;-54
2020/12/27 03:00:49;;;;;;;30.77;10.10;;;;;;;-2.30;75.43;99650.53;5098459;28;20035;-53
2020/12/27 03:03:33;;;;;;;21.67;9.82;;;;;;;-2.31;75.54;99648.78;5098847;28;20052;-54
2020/12/27 03:06:08;;;;;;;22.88;10.20;;;;;;;-2.33;75.63;99647.91;5098478;28;20044;-54
2020/12/27 03:08:34;;;;;;;23.65;11.10;;;;;;;-2.28;75.44;99647.16;5098428;28;20052;-53
2020/12/27 03:11:25;;;;;;;17.92;9.50;;;;;;;-2.27;75.50;99650.63;5098055;28;20059;-53
2020/12/27 03:13:52;;;;;;;21.92;10.18;;;;;;;-2.35;75.54;99646.13;5098315;28;20048;-54
2020/12/27 03:16:17;;;;;;;21.65;11.05;;;;;;;-2.35;75.81;99643.56;5098943;28;20048;-54
2020/12/27 03:19:06;;;;;;;20.35;10.10;;;;;;;-2.35;75.55;99630.75;5088714;28;20052;-53
2020/12/27 03:21:42;;;;;;;20.17;9.27;;;;;;;-2.45;75.98;99621.09;5098441;28;20341;-54
2020/12/27 03:24:24;;;;;;;19.83;9.00;;;;;;;-2.35;75.82;99614.50;5083705;28;20056;-54
2020/12/27 03:26:50;;;;;;;17.85;9.20;;;;;;;-2.42;75.82;99612.63;5098825;28;20048;-53
2020/12/27 03:29:16;;;;;;;26.83;9.43;;;;;;;-2.41;75.89;99597.25;5098859;28;20456;-54
2020/12/27 03:31:42;;;;;;;19.63;8.75;;;;;;;-2.37;75.68;99587.94;5097706;28;20043;-53
2020/12/27 03:34:13;;;;;;;21.50;9.20;;;;;;;-2.45;75.88;99590.31;5097704;28;20193;-54
2020/12/27 03:36:39;;;;;;;23.88;10.45;;;;;;;-2.42;75.76;99600.66;5097731;28;20040;-53
2020/12/27 03:39:11;;;;;;;20.23;9.68;;;;;;;-2.44;75.77;99583.47;5097856;28;20036;-53
2020/12/27 03:41:57;;;;;;;22.35;10.18;;;;;;;-2.47;76.20;99584.31;5097797;28;20048;-53
2020/12/27 03:44:39;;;;;;;20.45;9.35;;;;;;;-2.45;75.74;99585.19;5097764;28;20059;-53
2020/12/27 03:47:25;;;;;;;22.42;9.95;;;;;;;-2.44;75.78;99571.56;5097955;28;20066;-53
2020/12/27 03:50:11;;;;;;;25.92;11.73;;;;;;;-2.49;75.93;99557.75;5097474;28;20040;-54
2020/12/27 03:52:42;;;;;;;26.38;13.32;;;;;;;-2.42;75.69;99564.72;5097382;28;20101;-53
2020/12/27 03:55:34;;;;;;;26.08;12.63;;;;;;;-2.37;75.57;99560.59;5097458;28;20452;-54
2020/12/27 03:58:29;;;;;;;26.35;11.43;;;;;;;-2.45;75.78;99558.66;5096737;28;20071;-54
2020/12/27 04:01:08;;;;;;;29.10;11.40;;;;;;;-2.48;76.09;99567.16;5098207;28;20055;-53
2020/12/27 04:03:34;;;;;;;31.13;12.85;;;;;;;-2.49;76.08;99565.44;5096806;28;20415;-54
2020/12/27 04:06:07;;;;;;;32.17;12.95;;;;;;;-2.53;76.14;99558.50;5097028;28;20399;-54
2020/12/27 04:08:35;;;;;;;31.33;13.02;;;;;;;-2.48;75.88;99562.03;5080441;28;20097;-53
2020/12/27 04:11:02;;;;;;;26.27;11.30;;;;;;;-2.42;75.95;99551.06;5096974;28;20051;-54
2020/12/27 04:13:28;;;;;;;21.15;10.90;;;;;;;-2.48;75.81;99545.78;5080070;28;20058;-54
2020/12/27 04:16:01;;;;;;;24.23;10.60;;;;;;;-2.52;75.89;99543.97;5097102;28;20044;-54
2020/12/27 04:18:29;;;;;;;22.38;10.68;;;;;;;-2.51;75.68;99532.88;5096739;28;20051;-54
2020/12/27 04:21:30;;;;;;;18.70;9.13;;;;;;;-2.55;75.83;99521.69;5096012;28;20054;-54
2020/12/27 04:24:07;;;;;;;23.13;10.85;;;;;;;-2.63;76.14;99518.97;5093957;28;20048;-53
2020/12/27 04:26:34;;;;;;;27.10;11.38;;;;;;;-2.64;76.33;99514.63;5096615;28;20499;-54
2020/12/27 04:29:04;;;;;;;20.23;9.70;;;;;;;-2.64;76.36;99517.19;5096829;28;20136;-54
2020/12/27 04:31:30;;;;;;;18.63;9.48;;;;;;;-2.68;76.39;99524.81;5063512;28;20063;-54
2020/12/27 04:34:12;;;;;;;19.80;9.60;;;;;;;-2.64;76.21;99495.81;5096546;28;20395;-53
2020/12/27 04:36:42;;;;;;;26.92;11.02;;;;;;;-2.67;76.37;99511.13;5097545;28;20040;-54
2020/12/27 04:39:11;;;;;;;23.90;9.93;;;;;;;-2.61;76.30;99501.88;5096600;28;20044;-54
2020/12/27 04:41:45;;;;;;;25.60;11.35;;;;;;;-2.58;76.36;99490.84;5096551;28;20148;-54
2020/12/27 04:44:19;;;;;;;23.52;11.65;;;;;;;-2.64;76.49;99483.00;5096596;28;20048;-53
2020/12/27 04:46:47;;;;;;;28.05;11.82;;;;;;;-2.57;76.55;99492.56;5063506;28;20059;-54
2020/12/27 04:49:25;;;;;;;24.02;10.90;;;;;;;-2.51;76.34;99497.84;5066502;28;20410;-54
2020/12/27 04:52:01;;;;;;;22.33;10.68;;;;;;;-2.54;76.41;99499.47;5080719;28;20048;-54
2020/12/27 04:54:50;;;;;;;26.13;11.93;;;;;;;-2.46;76.25;99506.50;5097037;28;20340;-54
2020/12/27 04:57:37;;;;;;;23.73;10.88;;;;;;;-2.61;76.77;99501.88;5096344;28;20063;-54
2020/12/27 05:00:06;;;;;;;23.67;12.88;;;;;;;-2.59;76.71;99489.97;5079479;28;20063;-54
2020/12/27 05:02:51;;;;;;;23.33;11.00;;;;;;;-2.61;77.02;99480.50;5097135;28;20056;-54
2020/12/27 05:05:16;;;;;;;19.33;10.55;;;;;;;-2.47;76.76;99479.13;5095804;28;20066;-53
2020/12/27 05:07:46;;;;;;;20.38;11.05;;;;;;;-2.41;76.39;99468.97;5096191;28;20144;-54
2020/12/27 05:10:23;;;;;;;18.00;10.43;;;;;;;-2.31;75.86;99470.03;5096100;28;20044;-55
2020/12/27 05:12:55;;;;;;;17.75;8.02;;;;;;;-2.38;76.48;99465.63;5096182;28;20098;-54
2020/12/27 05:15:22;;;;;;;23.73;10.52;;;;;;;-2.33;76.25;99458.91;5095599;28;20428;-54
2020/12/27 05:17:49;;;;;;;18.67;10.60;;;;;;;-2.47;76.55;99452.59;5095772;28;20356;-53
2020/12/27 05:20:18;;;;;;;23.33;10.63;;;;;;;-2.40;76.37;99449.34;5095963;28;20052;-54
2020/12/27 05:22:48;;;;;;;19.00;11.25;;;;;;;-2.31;76.39;99446.94;5095598;28;20387;-53
2020/12/27 05:25:20;;;;;;;21.92;12.38;;;;;;;-2.34;76.12;99454.59;5096237;28;20040;-55
2020/12/27 05:28:06;;;;;;;25.23;10.98;;;;;;;-2.37;76.24;99447.72;5081504;28;20073;-54
2020/12/27 05:30:50;;;;;;;20.92;11.02;;;;;;;-2.32;76.19;99452.94;5096663;28;20048;-54
2020/12/27 05:33:36;;;;;;;20.33;11.25;;;;;;;-2.26;76.02;99447.06;5096593;28;20044;-54
2020/12/27 05:36:14;;;;;;;19.88;10.20;;;;;;;-2.40;76.12;99442.53;5095706;28;20154;-53
2020/12/27 05:38:45;;;;;;;19.58;11.00;;;;;;;-2.40;76.33;99445.09;5096095;28;20075;-54
2020/12/27 05:41:43;;;;;;;21.75;11.52;;;;;;;-2.30;76.38;99438.44;5095458;28;20058;-54
2020/12/27 05:44:20;;;;;;;19.13;12.07;;;;;;;-2.23;75.72;99449.69;5095328;28;20444;-54
2020/12/27 05:46:49;;;;;;;18.42;11.07;;;;;;;-2.37;76.28;99441.72;5095581;28;20052;-53
2020/12/27 05:49:18;;;;;;;23.67;11.68;;;;;;;-2.21;75.71;99435.19;5095577;28;20086;-54
2020/12/27 05:51:51;;;;;;;54.00;24.27;;;;;;;-2.35;76.21;99435.75;5078835;28;20068;-53
2020/12/27 05:54:34;;;;;;;48.42;21.85;;;;;;;-2.47;76.51;99439.78;5095464;28;20048;-53
2020/12/27 05:57:05;;;;;;;35.53;17.55;;;;;;;-2.42;76.21;99443.31;5095161;28;20047;-55
2020/12/27 05:59:35;;;;;;;29.38;15.80;;;;;;;-2.47;76.47;99430.41;5096376;28;20044;-54
2020/12/27 06:02:07;;;;;;;;;;;;;;;-2.45;76.39;99432.97;5064054;28;20425;-54
2020/12/27 06:04:56;;;;;;;25.65;13.27;;;;;;;-2.45;76.10;99428.72;5095039;28;19927;-54
2020/12/27 06:07:39;;;;;;;19.67;12.25;;;;;;;-2.42;76.14;99428.78;5095151;28;20508;-55
2020/12/27 06:10:16;;;;;;;15.53;8.67;;;;;;;-2.42;76.10;99426.22;5095444;28;20139;-54
2020/12/27 06:12:57;;;;;;;19.50;10.65;;;;;;;-2.45;76.26;99422.72;5095460;28;20575;-54
2020/12/27 06:15:25;;;;;;;21.80;11.68;;;;;;;-2.44;76.19;99421.88;5095008;28;20486;-53
2020/12/27 06:18:10;;;;;;;21.90;11.57;;;;;;;-2.41;76.06;99414.25;5096735;28;20047;-54
2020/12/27 06:21:14;;;;;;;21.67;12.68;;;;;;;-2.52;76.34;99415.75;5095274;28;20063;-53
2020/12/27 06:23:49;;;;;;;20.50;10.05;;;;;;;-2.55;76.43;99424.22;5064151;28;20052;-53
2020/12/27 06:26:16;;;;;;;20.38;11.73;;;;;;;-2.56;76.59;99425.06;5063503;28;20044;-54
2020/12/27 06:29:02;;;;;;;21.50;10.50;;;;;;;-2.48;76.23;99422.66;5098541;28;20044;-54
2020/12/27 06:31:35;;;;;;;26.25;13.25;;;;;;;-2.59;76.74;99419.88;5099260;28;20040;-53
2020/12/27 06:34:16;;;;;;;23.45;12.02;;;;;;;-2.56;77.00;99417.38;5099170;28;20052;-54
2020/12/27 06:36:51;;;;;;;22.85;12.15;;;;;;;-2.49;76.48;99415.81;5099000;28;20088;-54
2020/12/27 06:39:42;;;;;;;19.13;10.32;;;;;;;-2.57;76.71;99413.06;5098648;28;20064;-54
2020/12/27 06:42:16;;;;;;;20.20;10.57;;;;;;;-2.63;77.13;99411.25;5083620;28;20039;-54
2020/12/27 06:44:51;;;;;;;22.88;13.40;;;;;;;-2.59;76.74;99396.78;5098746;28;20055;-54
2020/12/27 06:47:52;;;;;;;21.95;10.77;;;;;;;-2.66;77.02;99405.19;5087622;28;20396;-55
2020/12/27 06:50:26;;;;;;;19.40;11.10;;;;;;;-2.66;77.18;99407.75;5083008;28;20052;-54
2020/12/27 06:53:00;;;;;;;19.33;11.02;;;;;;;-2.56;76.93;99412.25;5098787;28;20055;-53
2020/12/27 06:55:43;;;;;;;23.73;11.30;;;;;;;-2.46;76.55;99401.34;5099556;28;20127;-53
2020/12/27 06:58:22;;;;;;;28.70;13.50;;;;;;;-2.51;76.52;99394.38;5066739;28;20059;-53
2020/12/27 07:01:22;;;;;;;43.58;17.83;;;;;;;-2.55;76.60;99393.44;5098591;28;20063;-54
2020/12/27 07:03:48;;;;;;;39.08;15.48;;;;;;;-2.37;76.37;99393.84;5098691;28;20139;-53
2020/12/27 07:06:25;;;;;;;38.63;15.88;;;;;;;-2.41;76.37;99383.47;5099389;28;20051;-54
2020/12/27 07:08:57;;;;;;;20.85;11.18;;;;;;;-2.38;76.13;99376.69;5099067;28;20052;-54
2020/12/27 07:11:27;;;;;;;26.73;12.77;;;;;;;-2.23;75.90;99375.28;5098794;28;20040;-54
2020/12/27 07:13:53;;;;;;;22.63;12.13;;;;;;;-2.35;76.24;99360.50;5097970;28;20048;-54
2020/12/27 07:16:20;;;;;;;33.28;15.68;;;;;;;-2.24;75.82;99364.16;5098814;28;20043;-53
2020/12/27 07:18:49;;;;;;;30.63;14.52;;;;;;;-2.23;75.75;99358.19;5099100;28;20051;-53
2020/12/27 07:21:18;;;;;;;51.55;21.25;;;;;;;-2.19;75.75;99348.84;5099053;28;20421;-55
2020/12/27 07:24:11;;;;;;;64.78;27.77;;;;;;;-1.92;74.59;99349.34;5098966;28;20048;-53
2020/12/27 07:26:38;;;;;;;52.72;22.80;;;;;;;-2.03;74.66;99350.00;5098370;28;20123;-54
2020/12/27 07:29:07;;;;;;;52.05;24.60;;;;;;;-1.87;74.13;99357.13;5098941;28;20397;-55
2020/12/27 07:31:38;;;;;;;65.90;28.42;;;;;;;-1.85;74.21;99352.91;5098852;28;20055;-53
2020/12/27 07:34:04;;;;;;;74.57;33.03;;;;;;;-1.71;73.60;99340.28;5098517;28;20459;-53
2020/12/27 07:36:31;;;;;;;63.10;27.75;;;;;;;-1.72;73.74;99334.28;5098066;28;20110;-53
2020/12/27 07:39:01;;;;;;;49.75;23.42;;;;;;;-1.54;73.47;99320.00;5098726;28;20066;-53
2020/12/27 07:41:28;;;;;;;79.47;37.15;;;;;;;-1.25;72.18;99318.72;5098629;28;20078;-53
2020/12/27 07:43:54;;;;;;;144.30;59.20;;;;;;;-1.31;72.22;99325.50;5098291;28;20063;-53
2020/12/27 07:46:20;;;;;;;133.18;59.75;;;;;;;-1.23;72.01;99326.47;5098439;28;20044;-54
2020/12/27 07:48:47;;;;;;;229.38;96.53;;;;;;;-1.22;71.90;99315.34;5098501;28;20048;-55
2020/12/27 07:51:22;;;;;;;103.65;45.92;;;;;;;-1.20;72.16;99308.53;5098484;28;20349;-53
2020/12/27 07:53:49;;;;;;;195.43;95.88;;;;;;;-1.01;71.62;99292.53;5098836;28;20063;-53
2020/12/27 07:56:23;;;;;;;88.57;46.30;;;;;;;-0.84;71.18;99297.03;5097984;28;20052;-53
2020/12/27 07:58:49;;;;;;;26.98;11.23;;;;;;;-0.56;69.56;99288.75;5097992;28;20380;-54
2020/12/27 08:01:23;;;;;;;100.88;34.08;;;;;;;-0.54;69.81;99294.81;5098783;28;20063;-54
2020/12/27 08:03:58;;;;;;;;;;;;;;;-0.55;69.73;99292.22;5097717;28;20361;-53
2020/12/27 08:06:25;;;;;;;87.00;30.98;;;;;;;-0.15;68.94;99287.50;5098187;28;19931;-53
2020/12/27 08:09:01;;;;;;;107.60;44.00;;;;;;;0.09;67.91;99273.97;5097748;28;20437;-54
2020/12/27 08:11:28;;;;;;;31.60;14.43;;;;;;;0.42;66.70;99268.22;5098060;28;20048;-54
2020/12/27 08:13:55;;;;;;;51.53;21.30;;;;;;;0.37;66.47;99259.59;5097788;28;20131;-53
2020/12/27 08:16:21;;;;;;;21.33;11.73;;;;;;;0.43;65.84;99255.34;5097859;28;20044;-53
2020/12/27 08:18:47;;;;;;;36.70;17.70;;;;;;;0.54;65.30;99239.94;5096913;28;20032;-54
2020/12/27 08:21:19;;;;;;;43.33;20.05;;;;;;;0.59;65.35;99229.69;5097412;28;20044;-53
2020/12/27 08:24:02;;;;;;;53.15;19.95;;;;;;;0.78;64.43;99236.66;5097888;28;20048;-53
2020/12/27 08:26:28;;;;;;;20.83;10.40;;;;;;;0.64;64.79;99235.72;5098131;28;20044;-53
2020/12/27 08:29:06;;;;;;;14.77;8.52;;;;;;;0.75;63.82;99226.34;5097745;28;20048;-54
2020/12/27 08:31:32;;;;;;;18.17;9.95;;;;;;;0.80;64.06;99228.94;5097269;28;20063;-54
2020/12/27 08:34:27;;;;;;;26.40;13.27;;;;;;;0.82;63.68;99215.19;5097930;28;20325;-54
2020/12/27 08:36:55;;;;;;;25.05;12.05;;;;;;;1.02;63.26;99224.75;5092428;28;20361;-53
2020/12/27 08:39:35;;;;;;;26.75;11.65;;;;;;;1.01;62.92;99220.41;5097229;28;20047;-54
2020/12/27 08:42:05;;;;;;;29.33;12.88;;;;;;;1.05;62.51;99209.28;5096621;28;20060;-54
2020/12/27 08:44:47;;;;;;;33.28;14.73;;;;;;;0.95;63.47;99217.84;5097427;28;20044;-54
2020/12/27 08:47:42;;;;;;;22.33;12.23;;;;;;;1.05;62.95;99206.69;5097181;28;20051;-54
2020/12/27 08:50:13;;;;;;;31.88;15.30;;;;;;;1.10;63.02;99203.25;5094886;28;20126;-54
2020/12/27 08:52:39;;;;;;;38.45;16.27;;;;;;;1.22;63.07;99212.75;5096372;28;20090;-53
2020/12/27 08:55:08;;;;;;;23.00;11.13;;;;;;;1.38;62.16;99209.38;5079165;28;20048;-53
2020/12/27 08:57:33;;;;;;;20.67;12.25;;;;;;;1.47;61.64;99198.22;5096923;28;20055;-53
2020/12/27 08:59:59;;;;;;;19.45;8.90;;;;;;;1.50;61.48;99197.38;5079500;28;20056;-53
2020/12/27 09:02:25;;;;;;;32.40;13.57;;;;;;;1.61;61.54;99203.38;5096938;28;20048;-53
2020/12/27 09:05:01;;;;;;;32.92;15.63;;;;;;;1.63;61.25;99206.84;5096729;28;20056;-54
2020/12/27 09:07:35;;;;;;;27.15;11.65;;;;;;;1.70;60.40;99197.38;5097098;28;20132;-53
2020/12/27 09:10:14;;;;;;;36.42;16.23;;;;;;;1.85;59.41;99192.22;5096756;28;20044;-53
2020/12/27 09:13:03;;;;;;;53.22;20.15;;;;;;;1.77;60.33;99196.53;5096647;28;20440;-53
2020/12/27 09:15:33;;;;;;;34.00;12.18;;;;;;;1.98;58.57;99201.72;5097171;28;20071;-53
2020/12/27 09:18:02;;;;;;;33.92;14.93;;;;;;;1.87;58.89;99201.69;5096600;28;20064;-53
2020/12/27 09:20:29;;;;;;;32.40;15.15;;;;;;;1.87;59.62;99195.66;5096478;28;20051;-53
2020/12/27 09:22:55;;;;;;;38.50;16.10;;;;;;;1.93;58.98;99199.97;5096954;28;20436;-54
2020/12/27 09:25:21;;;;;;;33.75;14.95;;;;;;;2.00;58.30;99184.47;5095880;28;20069;-53
2020/12/27 09:27:47;;;;;;;17.30;8.68;;;;;;;2.00;58.28;99181.88;5096510;28;20044;-53
2020/12/27 09:30:14;;;;;;;31.73;14.15;;;;;;;1.98;58.35;99165.53;5096707;28;20424;-53
2020/12/27 09:32:41;;;;;;;22.13;10.77;;;;;;;2.03;57.58;99173.28;5096126;28;20085;-53
2020/12/27 09:35:06;;;;;;;25.40;12.02;;;;;;;1.92;57.83;99160.38;5096247;28;20101;-53
2020/12/27 09:37:33;;;;;;;39.65;19.90;;;;;;;1.92;57.89;99164.66;5096663;28;20066;-53
2020/12/27 09:40:00;;;;;;;43.60;20.25;;;;;;;1.98;57.97;99159.50;5096341;28;20051;-53
2020/12/27 09:42:32;;;;;;;31.02;13.80;;;;;;;2.04;56.77;99160.34;5095432;28;20039;-54
2020/12/27 09:44:58;;;;;;;31.50;14.30;;;;;;;2.00;56.73;99158.63;5096551;28;20052;-54
2020/12/27 09:47:25;;;;;;;36.67;19.13;;;;;;;2.05;56.94;99146.59;5095626;28;20355;-53
2020/12/27 09:50:05;;;;;;;22.60;11.65;;;;;;;2.06;56.53;99143.13;5096883;28;20063;-53
2020/12/27 09:52:31;;;;;;;28.52;12.23;;;;;;;2.11;56.30;99132.78;5096492;28;20044;-54
2020/12/27 09:54:57;;;;;;;37.33;18.25;;;;;;;2.13;56.34;99135.38;5096560;28;20352;-45
2020/12/27 09:57:24;;;;;;;31.08;15.45;;;;;;;2.08;56.49;99125.91;5096146;28;20052;-45
2020/12/27 09:59:51;;;;;;;37.75;18.35;;;;;;;2.18;56.12;99131.03;5079846;28;20372;-45
2020/12/27 10:02:18;;;;;;;19.52;9.88;;;;;;;2.38;55.34;99116.38;5099700;28;20044;-45
2020/12/27 10:04:44;;;;;;;34.22;14.15;;;;;;;2.31;55.28;99102.59;5100974;28;20139;-53
2020/12/27 10:07:10;;;;;;;24.83;11.23;;;;;;;2.25;55.32;99094.00;5082679;28;20396;-53
2020/12/27 10:09:36;;;;;;;28.15;10.25;;;;;;;2.39;54.83;99099.13;5100427;28;20059;-54
2020/12/27 10:12:03;;;;;;;20.67;9.63;;;;;;;2.43;54.28;99087.91;5100086;28;20509;-54
2020/12/27 10:14:29;;;;;;;27.42;11.98;;;;;;;2.37;55.19;99093.94;5099993;28;20116;-53
2020/12/27 10:16:57;;;;;;;20.55;9.35;;;;;;;2.44;54.93;99077.59;5099909;28;20047;-53
2020/12/27 10:19:24;;;;;;;28.33;13.68;;;;;;;2.57;54.72;99074.06;5100251;28;20135;-53
2020/12/27 10:21:49;;;;;;;19.20;9.02;;;;;;;2.60;53.78;99062.88;5100192;28;20056;-53
2020/12/27 10:24:15;;;;;;;21.50;9.90;;;;;;;2.66;53.69;99062.81;5099263;28;20113;-53
2020/12/27 10:26:50;;;;;;;18.27;8.43;;;;;;;2.72;52.34;99057.59;5082383;28;20401;-53
2020/12/27 10:29:17;;;;;;;28.17;15.55;;;;;;;2.69;53.55;99049.88;5099254;28;20044;-53
2020/12/27 10:31:42;;;;;;;34.72;17.88;;;;;;;2.65;53.73;99047.31;5100021;28;20109;-54
2020/12/27 10:34:08;;;;;;;21.27;10.60;;;;;;;2.86;51.82;99035.97;5099994;28;20052;-53
2020/12/27 10:36:34;;;;;;;26.35;10.57;;;;;;;2.90;51.12;99032.53;5099843;28;20044;-54
2020/12/27 10:39:00;;;;;;;43.15;17.00;;;;;;;2.81;52.20;99033.44;5099863;28;20052;-54
2020/12/27 10:41:25;;;;;;;26.10;10.60;;;;;;;2.77;52.29;99035.19;5098955;28;20048;-54
2020/12/27 10:43:51;;;;;;;18.00;7.00;;;;;;;2.80;51.32;99035.16;5098622;28;20079;-54
2020/12/27 10:46:17;;;;;;;30.58;10.02;;;;;;;2.75;52.56;99016.22;5099228;28;20048;-54
2020/12/27 10:48:43;;;;;;;32.67;11.85;;;;;;;2.83;51.83;99015.31;5099716;28;20055;-54
2020/12/27 10:51:09;;;;;;;33.75;10.85;;;;;;;2.83;51.79;98995.50;5099346;28;20047;-54
2020/12/27 10:53:36;;;;;;;24.13;8.65;;;;;;;2.91;50.34;98996.28;5099272;28;20048;-54
2020/12/27 10:56:02;;;;;;;24.85;9.73;;;;;;;2.87;51.06;98997.19;5099355;28;20053;-54
2020/12/27 10:58:28;;;;;;;22.52;7.93;;;;;;;2.94;50.47;98983.34;5099445;28;20052;-54
2020/12/27 11:00:53;;;;;;;18.55;8.07;;;;;;;2.91;50.69;98969.56;5099198;28;20056;-54
2020/12/27 11:03:19;;;;;;;32.03;10.90;;;;;;;3.01;50.29;98959.13;5099461;28;20109;-54
2020/12/27 11:05:46;;;;;;;22.38;8.80;;;;;;;3.09;49.31;98953.91;5099427;28;20062;-54
2020/12/27 11:08:12;;;;;;;17.83;7.57;;;;;;;3.10;48.79;98942.66;5081693;28;20055;-54
2020/12/27 11:10:37;;;;;;;19.20;7.63;;;;;;;3.06;49.27;98933.22;5098937;28;20081;-54
2020/12/27 11:13:03;;;;;;;19.00;8.18;;;;;;;3.05;49.75;98926.31;5098225;28;20044;-54
2020/12/27 11:15:32;;;;;;;18.20;8.30;;;;;;;3.09;49.81;98911.63;5099144;28;20043;-53
2020/12/27 11:18:01;;;;;;;22.05;8.95;;;;;;;3.02;49.80;98901.34;5098216;28;20047;-54
2020/12/27 11:20:28;;;;;;;15.05;7.25;;;;;;;3.06;49.70;98902.19;5098805;28;20410;-54
2020/12/27 11:22:55;;;;;;;12.02;6.00;;;;;;;3.08;49.59;98894.38;5099054;28;20044;-54
2020/12/27 11:25:21;;;;;;;14.98;7.70;;;;;;;3.17;49.27;98895.16;5098126;28;20040;-54
2020/12/27 11:27:47;;;;;;;27.52;11.25;;;;;;;3.15;49.75;98891.75;5097803;28;20452;-54
2020/12/27 11:30:12;;;;;;;17.77;8.25;;;;;;;3.20;49.80;98899.44;5098923;28;20051;-54
2020/12/27 11:32:38;;;;;;;11.70;5.15;;;;;;;3.30;48.98;98871.75;5098733;28;20447;-54
2020/12/27 11:35:04;;;;;;;44.50;15.55;;;;;;;3.22;49.60;98877.00;5098507;28;20044;-54
2020/12/27 11:37:30;;;;;;;12.27;6.03;;;;;;;3.20;49.85;98871.84;5098694;28;20052;-54
2020/12/27 11:39:55;;;;;;;16.17;7.68;;;;;;;3.25;49.61;98858.84;5098407;28;20117;-54
2020/12/27 11:42:25;;;;;;;14.70;7.43;;;;;;;3.24;49.87;98857.13;5098721;28;20052;-55